Time;durP1;ratioP1;P1;durP2;ratioP2;P2;SDS_P1;SDS_P2;PMS_P1;PMS_P2;Temp;Humidity;BMP_temperature;BMP_pressure;BME280_temperature;BME280_humidity;BME280_pressure;Samples;Min_cycle;Max_cycle;Signal;HPM_P1;HPM_P2
2022/11/09 00:00:44;;;;;;;2.05;0.50;;;11.70;99.90;;;;;;5001585;28;20534;-71
2022/11/09 00:03:11;;;;;;;1.83;0.70;;;11.70;99.90;;;;;;5007943;28;20136;-71
2022/11/09 00:05:37;;;;;;;6.78;0.40;;;11.70;99.90;;;;;;4998424;28;20129;-71
2022/11/09 00:08:05;;;;;;;2.22;0.50;;;11.70;99.90;;;;;;5003366;28;20065;-71
2022/11/09 00:10:32;;;;;;;3.38;1.17;;;11.70;99.90;;;;;;5001922;28;20435;-71
2022/11/09 00:12:59;;;;;;;;;;;11.70;99.90;;;;;;5008774;28;20061;-71
2022/11/09 00:15:25;;;;;;;2.72;0.70;;;11.70;99.90;;;;;;4996335;28;20037;-71
2022/11/09 00:17:51;;;;;;;3.75;0.73;;;11.70;99.90;;;;;;4994507;28;20655;-70
2022/11/09 00:20:17;;;;;;;3.17;1.43;;;11.80;99.90;;;;;;5003044;28;20125;-71
2022/11/09 00:22:46;;;;;;;2.93;0.57;;;11.80;99.90;;;;;;4999502;28;20441;-70
2022/11/09 00:25:12;;;;;;;2.20;0.60;;;11.70;99.90;;;;;;4982882;28;20049;-71
2022/11/09 00:27:38;;;;;;;7.40;0.87;;;11.80;99.90;;;;;;4997365;28;20183;-71
2022/11/09 00:30:04;;;;;;;5.30;0.80;;;11.80;99.90;;;;;;4996424;28;20046;-75
2022/11/09 00:32:30;;;;;;;1.92;0.77;;;11.80;99.90;;;;;;4997701;28;20503;-71
2022/11/09 00:34:55;;;;;;;1.67;0.83;;;11.80;99.90;;;;;;4999789;28;20037;-71
2022/11/09 00:37:21;;;;;;;4.97;1.20;;;11.80;99.90;;;;;;4996899;28;20065;-71
2022/11/09 00:39:47;;;;;;;1.83;0.70;;;11.80;99.90;;;;;;5001781;28;20042;-71
2022/11/09 00:42:12;;;;;;;2.20;0.80;;;11.90;99.90;;;;;;4996890;28;20348;-71
2022/11/09 00:44:38;;;;;;;1.98;0.88;;;11.80;99.90;;;;;;4998415;28;20065;-71
2022/11/09 00:47:04;;;;;;;1.53;1.00;;;11.80;99.90;;;;;;5006477;28;20045;-72
2022/11/09 00:49:29;;;;;;;5.25;1.20;;;11.80;99.90;;;;;;4998990;28;20307;-71
2022/11/09 00:51:55;;;;;;;5.67;1.37;;;11.80;99.90;;;;;;5006579;28;20050;-72
2022/11/09 00:54:21;;;;;;;5.97;1.20;;;11.90;99.90;;;;;;4998313;28;20104;-71
2022/11/09 00:56:46;;;;;;;6.30;1.60;;;11.90;99.90;;;;;;5001783;28;20096;-73
2022/11/09 00:59:12;;;;;;;4.67;1.20;;;11.90;99.90;;;;;;4981976;28;20042;-71
2022/11/09 01:01:41;;;;;;;5.20;1.55;;;11.90;99.90;;;;;;5004510;28;20541;-71
2022/11/09 01:04:06;;;;;;;5.00;1.90;;;11.90;99.90;;;;;;4994167;28;20038;-71
2022/11/09 01:06:32;;;;;;;2.65;1.73;;;11.90;99.90;;;;;;5005801;28;20042;-71
2022/11/09 01:08:58;;;;;;;4.53;1.97;;;12.00;99.90;;;;;;5000797;28;20045;-72
2022/11/09 01:11:24;;;;;;;7.50;1.50;;;12.10;99.90;;;;;;5001417;28;20380;-72
2022/11/09 01:13:50;;;;;;;5.55;2.03;;;12.10;99.90;;;;;;5000686;28;20092;-71
2022/11/09 01:16:21;;;;;;;4.10;2.10;;;12.10;99.90;;;;;;5003550;28;20046;-72
2022/11/09 01:18:47;;;;;;;4.25;2.00;;;12.20;99.90;;;;;;5004376;28;20125;-72
2022/11/09 01:21:14;;;;;;;4.07;1.80;;;12.20;99.90;;;;;;5001803;28;20116;-72
2022/11/09 01:23:43;;;;;;;3.97;1.73;;;12.30;99.90;;;;;;4996150;28;20125;-72
2022/11/09 01:26:12;;;;;;;9.27;1.90;;;12.30;99.90;;;;;;5003561;28;20489;-71
2022/11/09 01:28:38;;;;;;;7.50;1.67;;;12.30;99.90;;;;;;4995398;28;20049;-71
2022/11/09 01:31:15;;;;;;;10.13;2.03;;;12.30;99.90;;;;;;5006471;28;20045;-72
2022/11/09 01:33:41;;;;;;;4.70;1.40;;;12.30;99.90;;;;;;5007835;28;20053;-71
2022/11/09 01:36:13;;;;;;;6.55;1.83;;;12.30;99.90;;;;;;5002948;28;20034;-71
2022/11/09 01:38:39;;;;;;;2.30;1.45;;;12.30;99.90;;;;;;5003045;28;20045;-72
2022/11/09 01:41:07;;;;;;;5.28;1.35;;;12.30;99.90;;;;;;5000487;28;20749;-71
2022/11/09 01:43:33;;;;;;;5.35;1.17;;;12.30;99.90;;;;;;5004095;28;20048;-72
2022/11/09 01:46:24;;;;;;;4.45;1.30;;;12.30;99.90;;;;;;5006243;28;20101;-71
2022/11/09 01:48:56;;;;;;;5.43;1.50;;;12.30;99.90;;;;;;5004911;28;20048;-72
2022/11/09 01:51:35;;;;;;;4.07;1.20;;;12.20;99.90;;;;;;5003116;28;20042;-71
2022/11/09 01:54:18;;;;;;;6.28;1.48;;;12.20;99.90;;;;;;4988706;28;20057;-71
2022/11/09 01:56:47;;;;;;;4.03;1.63;;;12.20;99.90;;;;;;5001759;28;20053;-71
2022/11/09 01:59:17;;;;;;;6.65;1.98;;;12.20;99.90;;;;;;5002271;28;20042;-71
2022/11/09 02:01:44;;;;;;;3.40;1.63;;;12.20;99.90;;;;;;5007920;28;20084;-72
2022/11/09 02:04:24;;;;;;;6.05;1.60;;;12.20;99.90;;;;;;5001252;28;20040;-71
2022/11/09 02:06:51;;;;;;;8.18;1.75;;;12.10;99.90;;;;;;5018963;28;20045;-72
2022/11/09 02:09:28;;;;;;;5.10;1.98;;;12.10;99.90;;;;;;5004385;28;20500;-72
2022/11/09 02:11:53;;;;;;;4.38;2.15;;;12.10;99.90;;;;;;4992410;28;20049;-72
2022/11/09 02:14:22;;;;;;;4.43;1.80;;;12.10;99.90;;;;;;4991701;28;20372;-71
2022/11/09 02:16:48;;;;;;;4.38;1.52;;;12.10;99.90;;;;;;4993974;28;20060;-71
2022/11/09 02:19:13;;;;;;;5.88;2.60;;;12.10;99.90;;;;;;5000877;28;20577;-71
2022/11/09 02:21:39;;;;;;;3.20;1.45;;;12.10;99.90;;;;;;4996490;28;20393;-71
2022/11/09 02:24:05;;;;;;;5.30;1.40;;;12.00;99.90;;;;;;4993765;28;20065;-71
2022/11/09 02:26:48;;;;;;;5.10;1.50;;;12.10;99.90;;;;;;4998408;28;20054;-74
2022/11/09 02:29:47;;;;;;;6.40;1.55;;;12.10;99.90;;;;;;4998946;28;20224;-73
2022/11/09 02:32:20;;;;;;;3.40;1.55;;;12.00;99.90;;;;;;4963900;28;20053;-74
2022/11/09 02:34:46;;;;;;;6.45;1.77;;;12.00;99.90;;;;;;5006922;28;20046;-73
2022/11/09 02:37:11;;;;;;;4.60;1.58;;;12.00;99.90;;;;;;5005567;28;20037;-74
2022/11/09 02:39:38;;;;;;;4.40;1.60;;;12.00;99.90;;;;;;5001247;28;20034;-74
2022/11/09 02:42:11;;;;;;;6.88;1.77;;;12.00;99.90;;;;;;4999867;28;20061;-73
2022/11/09 02:44:42;;;;;;;6.55;1.55;;;12.00;99.90;;;;;;4987290;28;20068;-73
2022/11/09 02:47:07;;;;;;;6.90;1.50;;;12.00;99.90;;;;;;5002682;28;20117;-73
2022/11/09 02:49:33;;;;;;;7.07;1.73;;;12.00;99.90;;;;;;5003003;28;20121;-72
2022/11/09 02:51:59;;;;;;;4.00;1.52;;;12.00;99.90;;;;;;5010743;28;20064;-72
2022/11/09 02:54:25;;;;;;;5.60;1.73;;;12.00;99.90;;;;;;5004418;28;20672;-72
2022/11/09 02:56:50;;;;;;;9.13;1.53;;;11.90;99.90;;;;;;5009004;28;20286;-71
2022/11/09 02:59:16;;;;;;;7.07;2.33;;;11.90;99.90;;;;;;5009442;28;20038;-72
2022/11/09 03:01:42;;;;;;;5.53;1.97;;;11.90;99.90;;;;;;5003403;28;20655;-71
2022/11/09 03:04:07;;;;;;;5.53;1.60;;;11.90;99.90;;;;;;4998550;28;20353;-72
2022/11/09 03:06:33;;;;;;;4.30;2.00;;;11.90;99.90;;;;;;5007995;28;20299;-72
2022/11/09 03:09:05;;;;;;;7.15;1.83;;;11.90;99.90;;;;;;5004127;28;20044;-71
2022/11/09 03:11:31;;;;;;;3.63;1.30;;;11.90;99.90;;;;;;5006856;28;20135;-71
2022/11/09 03:13:57;;;;;;;5.53;1.37;;;11.80;99.90;;;;;;4998772;28;20400;-72
2022/11/09 03:18:50;;;;;;;6.85;1.48;;;11.80;99.90;;;;;;4986435;28;20089;-72
2022/11/09 03:21:16;;;;;;;;;;;11.80;99.90;;;;;;4993552;28;20465;-72
2022/11/09 03:23:42;;;;;;;5.93;1.23;;;11.80;99.90;;;;;;4986814;28;19924;-72
2022/11/09 03:26:08;;;;;;;2.67;1.03;;;11.80;99.90;;;;;;4982798;28;20039;-71
2022/11/09 03:28:35;;;;;;;3.63;1.48;;;11.80;99.90;;;;;;4983522;28;20289;-72
2022/11/09 03:31:01;;;;;;;5.55;1.17;;;11.80;99.90;;;;;;4988077;28;20419;-71
2022/11/09 03:33:27;;;;;;;7.97;1.42;;;11.80;99.90;;;;;;4990765;28;20046;-72
2022/11/09 03:35:53;;;;;;;;;;;11.80;99.90;;;;;;4954648;28;20380;-71
2022/11/09 03:38:19;;;;;;;5.28;1.00;;;11.80;99.90;;;;;;4969677;28;20305;-71
2022/11/09 03:40:45;;;;;;;6.00;1.13;;;11.80;99.90;;;;;;4969821;28;20519;-71
2022/11/09 03:43:10;;;;;;;4.68;1.30;;;11.80;99.90;;;;;;4988842;28;20129;-72
2022/11/09 03:45:36;;;;;;;9.60;1.73;;;11.70;99.90;;;;;;4979699;28;20049;-72
2022/11/09 03:48:05;;;;;;;8.87;1.67;;;11.70;99.90;;;;;;4971435;28;20442;-72
2022/11/09 03:50:33;;;;;;;3.60;1.13;;;11.80;99.90;;;;;;4977233;28;20298;-72
2022/11/09 03:53:00;;;;;;;7.45;1.95;;;11.70;99.90;;;;;;4993390;28;21490;-72
2022/11/09 03:55:25;;;;;;;;;;;11.70;99.90;;;;;;4981951;28;20046;-72
2022/11/09 03:57:52;;;;;;;7.60;1.52;;;11.70;99.90;;;;;;4984646;28;19964;-72
2022/11/09 04:00:19;;;;;;;5.90;1.15;;;11.70;99.90;;;;;;4968297;28;20532;-71
2022/11/09 04:02:45;;;;;;;3.53;1.42;;;11.70;99.90;;;;;;4967286;28;20046;-74
2022/11/09 04:05:11;;;;;;;8.50;1.60;;;11.70;99.90;;;;;;4974444;28;20048;-69
2022/11/09 04:07:37;;;;;;;9.00;2.10;;;11.70;99.90;;;;;;4970910;28;20315;-69
2022/11/09 04:10:04;;;;;;;;;;;11.70;99.90;;;;;;4953561;28;20198;-68
2022/11/09 04:12:30;;;;;;;3.60;1.02;;;11.70;99.90;;;;;;4983951;28;19980;-69
2022/11/09 04:14:55;;;;;;;5.60;1.10;;;11.70;99.90;;;;;;4987871;28;20476;-71
2022/11/09 04:17:21;;;;;;;5.73;1.50;;;11.70;99.90;;;;;;4985494;28;20100;-71
2022/11/09 04:19:47;;;;;;;8.47;1.97;;;11.70;99.90;;;;;;4986805;28;20034;-71
2022/11/09 04:22:16;;;;;;;6.68;1.60;;;11.70;99.90;;;;;;4987807;28;20280;-68
2022/11/09 04:24:41;;;;;;;2.70;1.02;;;11.70;99.90;;;;;;4987912;28;20111;-68
2022/11/09 04:27:07;;;;;;;7.57;1.15;;;11.70;99.90;;;;;;4989749;28;20038;-68
2022/11/09 04:29:33;;;;;;;10.03;1.50;;;11.70;99.90;;;;;;4969753;28;20057;-69
2022/11/09 04:31:59;;;;;;;12.95;1.45;;;11.70;99.90;;;;;;4983681;28;20034;-68
2022/11/09 04:34:24;;;;;;;3.43;1.13;;;11.70;99.90;;;;;;4983363;28;20074;-68
2022/11/09 04:36:50;;;;;;;8.10;1.30;;;11.70;99.90;;;;;;4990737;28;20488;-69
2022/11/09 04:39:16;;;;;;;6.05;1.38;;;11.70;99.90;;;;;;4990318;28;20046;-69
2022/11/09 04:41:41;;;;;;;7.03;1.40;;;11.70;99.90;;;;;;4954823;28;20040;-68
2022/11/09 04:44:07;;;;;;;9.13;1.30;;;11.70;99.90;;;;;;4968081;28;20046;-69
2022/11/09 04:46:33;;;;;;;7.70;1.33;;;11.70;99.90;;;;;;4988606;28;20294;-69
2022/11/09 04:48:59;;;;;;;9.98;1.77;;;11.70;99.90;;;;;;4971455;28;20043;-69
2022/11/09 04:51:24;;;;;;;4.73;1.17;;;11.70;99.90;;;;;;4974792;28;20499;-69
2022/11/09 04:53:50;;;;;;;6.20;1.03;;;11.80;99.90;;;;;;4987676;28;20492;-69
2022/11/09 04:56:16;;;;;;;10.27;1.30;;;11.70;99.90;;;;;;4984046;28;20294;-69
2022/11/09 04:58:42;;;;;;;5.43;1.40;;;11.80;99.90;;;;;;4988674;28;20030;-69
2022/11/09 05:01:11;;;;;;;4.22;1.20;;;11.80;99.90;;;;;;4990326;28;20049;-71
2022/11/09 05:03:37;;;;;;;3.08;1.10;;;11.80;99.90;;;;;;4968601;28;20389;-71
2022/11/09 05:06:30;;;;;;;5.07;1.00;;;11.70;99.90;;;;;;4960961;28;20058;-68
2022/11/09 05:08:49;;;;;;;6.90;1.30;;;11.80;99.90;;;;;;4990958;28;20515;-69
2022/11/09 05:11:15;;;;;;;5.30;1.27;;;11.70;99.90;;;;;;4985570;28;20042;-69
2022/11/09 05:13:40;;;;;;;2.92;1.10;;;11.80;99.90;;;;;;4972044;28;20420;-69
2022/11/09 05:16:06;;;;;;;6.38;1.20;;;11.80;99.90;;;;;;4980704;28;20136;-68
2022/11/09 05:18:34;;;;;;;5.65;1.30;;;11.80;99.90;;;;;;4981695;28;20098;-69
2022/11/09 05:21:03;;;;;;;8.15;1.52;;;11.80;99.90;;;;;;4984787;28;20045;-69
2022/11/09 05:26:16;;;;;;;3.38;1.17;;;11.80;99.90;;;;;;4966472;28;20474;-71
2022/11/09 05:28:41;;;;;;;6.25;1.75;;;11.80;99.90;;;;;;4971569;28;20039;-72
2022/11/09 05:31:07;;;;;;;4.93;1.70;;;11.80;99.90;;;;;;4988919;28;20049;-71
2022/11/09 05:33:36;;;;;;;7.13;1.40;;;11.80;99.90;;;;;;4989870;28;20312;-71
2022/11/09 05:36:04;;;;;;;7.38;1.30;;;11.80;99.90;;;;;;4983761;28;20377;-72
2022/11/09 05:38:31;;;;;;;4.18;1.60;;;11.80;99.90;;;;;;4987168;28;20125;-71
2022/11/09 05:40:57;;;;;;;7.35;1.45;;;11.80;99.90;;;;;;4987976;28;20293;-72
2022/11/09 05:43:23;;;;;;;5.70;1.70;;;11.80;99.90;;;;;;4967327;28;20053;-72
2022/11/09 05:45:48;;;;;;;6.18;1.48;;;11.80;99.90;;;;;;4984580;28;20570;-72
2022/11/09 05:48:16;;;;;;;6.75;1.20;;;11.80;99.90;;;;;;4989474;28;20469;-72
2022/11/09 05:50:42;;;;;;;3.60;1.35;;;11.80;99.90;;;;;;4962429;28;20500;-72
2022/11/09 05:53:10;;;;;;;6.88;1.58;;;11.70;99.90;;;;;;4985393;28;20046;-72
2022/11/09 05:55:36;;;;;;;6.00;1.70;;;11.80;99.90;;;;;;4985035;28;20061;-71
2022/11/09 05:58:01;;;;;;;5.55;1.42;;;11.70;99.90;;;;;;4974341;28;20057;-74
2022/11/09 06:00:28;;;;;;;5.80;1.00;;;11.70;99.90;;;;;;4980576;28;20050;-73
2022/11/09 06:03:03;;;;;;;14.10;1.45;;;11.70;99.90;;;;;;4972664;28;20296;-80
2022/11/09 06:05:28;;;;;;;7.20;1.80;;;11.70;99.90;;;;;;4970437;28;20133;-73
2022/11/09 06:07:54;;;;;;;2.80;1.42;;;11.70;99.90;;;;;;4979637;28;20721;-71
2022/11/09 06:10:20;;;;;;;6.97;1.20;;;11.60;99.90;;;;;;4990717;28;20129;-72
2022/11/09 06:12:49;;;;;;;6.47;1.27;;;11.60;99.90;;;;;;4970237;28;20335;-71
2022/11/09 06:15:15;;;;;;;4.85;1.15;;;11.60;99.90;;;;;;4976405;28;20482;-71
2022/11/09 06:17:41;;;;;;;5.63;1.33;;;11.60;99.90;;;;;;4970822;28;20042;-71
2022/11/09 06:20:07;;;;;;;4.93;1.27;;;11.60;99.90;;;;;;4966161;28;20607;-71
2022/11/09 06:22:33;;;;;;;7.10;1.80;;;11.50;99.90;;;;;;4975305;28;20455;-71
2022/11/09 06:24:59;;;;;;;4.20;1.35;;;11.60;99.90;;;;;;4975518;28;20151;-71
2022/11/09 06:27:25;;;;;;;5.03;1.40;;;11.50;99.90;;;;;;4987049;28;20069;-73
2022/11/09 06:29:50;;;;;;;5.40;1.33;;;11.50;99.90;;;;;;4975595;28;20044;-74
2022/11/09 06:32:16;;;;;;;9.07;2.10;;;11.50;99.90;;;;;;4991346;28;20042;-74
2022/11/09 06:34:43;;;;;;;6.33;1.70;;;11.50;99.90;;;;;;4989025;28;20038;-73
2022/11/09 06:37:08;;;;;;;5.57;1.90;;;11.50;99.90;;;;;;4988553;28;20049;-73
2022/11/09 06:39:34;;;;;;;7.13;1.40;;;11.50;99.90;;;;;;4987652;28;20117;-73
2022/11/09 06:42:02;;;;;;;4.30;1.50;;;11.50;99.90;;;;;;4966282;28;20469;-73
2022/11/09 06:44:28;;;;;;;10.23;1.30;;;11.40;99.90;;;;;;4967065;28;20132;-73
2022/11/09 06:46:54;;;;;;;7.78;1.70;;;11.40;99.90;;;;;;4985672;28;20097;-74
2022/11/09 06:49:20;;;;;;;8.70;1.40;;;11.50;99.90;;;;;;4972520;28;20046;-71
2022/11/09 06:51:45;;;;;;;3.20;1.07;;;11.50;99.90;;;;;;4981509;28;20284;-74
2022/11/09 06:54:11;;;;;;;6.37;1.10;;;11.40;99.90;;;;;;4977266;28;20172;-74
2022/11/09 06:56:37;;;;;;;5.47;1.13;;;11.40;99.90;;;;;;4974092;28;20353;-72
2022/11/09 06:59:02;;;;;;;4.90;0.90;;;11.50;99.90;;;;;;4985717;28;20039;-72
2022/11/09 07:01:28;;;;;;;4.70;1.40;;;11.40;99.90;;;;;;4986432;28;20043;-72
2022/11/09 07:03:54;;;;;;;7.53;1.33;;;11.40;99.90;;;;;;4987985;28;20050;-72
2022/11/09 07:06:20;;;;;;;3.70;0.80;;;11.40;99.90;;;;;;4971776;28;20162;-72
2022/11/09 07:08:46;;;;;;;4.67;1.57;;;11.40;99.90;;;;;;4972821;28;20603;-72
2022/11/09 07:11:18;;;;;;;6.13;1.17;;;11.40;99.90;;;;;;4989160;28;20497;-72
2022/11/09 07:13:46;;;;;;;8.05;1.67;;;11.40;99.90;;;;;;4978935;28;20052;-72
2022/11/09 07:16:15;;;;;;;6.72;1.23;;;11.40;99.90;;;;;;4973145;28;20042;-72
2022/11/09 07:18:44;;;;;;;5.80;1.38;;;11.40;99.90;;;;;;4991374;28;20479;-73
2022/11/09 07:21:11;;;;;;;6.20;1.13;;;11.40;99.90;;;;;;4987886;28;20038;-72
2022/11/09 07:23:36;;;;;;;;;;;11.30;99.90;;;;;;4969497;28;20122;-71
2022/11/09 07:26:03;;;;;;;5.95;1.23;;;11.40;99.90;;;;;;4993261;28;20009;-72
2022/11/09 07:28:29;;;;;;;4.47;1.15;;;11.40;99.90;;;;;;4976764;28;20058;-72
2022/11/09 07:30:57;;;;;;;6.78;1.20;;;11.30;99.90;;;;;;4993049;28;20203;-72
2022/11/09 07:33:23;;;;;;;6.40;1.10;;;11.30;99.90;;;;;;4975086;28;20045;-71
2022/11/09 07:35:49;;;;;;;4.55;1.73;;;11.30;99.90;;;;;;4975436;28;20059;-73
2022/11/09 07:38:15;;;;;;;4.18;1.23;;;11.30;99.90;;;;;;4990558;28;20423;-73
2022/11/09 07:40:43;;;;;;;6.40;1.40;;;11.40;99.90;;;;;;4975190;28;20072;-73
2022/11/09 07:43:16;;;;;;;7.13;1.42;;;11.30;99.90;;;;;;4989589;28;20046;-73
2022/11/09 07:45:41;;;;;;;2.15;0.98;;;11.30;99.90;;;;;;4987448;28;20047;-73
2022/11/09 07:48:09;;;;;;;4.47;1.60;;;11.30;99.90;;;;;;4981364;28;20045;-72
2022/11/09 07:50:37;;;;;;;14.10;1.23;;;11.30;99.90;;;;;;4963961;28;20300;-72
2022/11/09 07:53:05;;;;;;;4.03;0.95;;;11.40;99.90;;;;;;4963928;28;20047;-72
2022/11/09 07:55:35;;;;;;;6.47;1.23;;;11.40;99.90;;;;;;4968881;28;20502;-72
2022/11/09 07:58:08;;;;;;;6.60;1.40;;;11.40;99.90;;;;;;4978454;28;20039;-72
2022/11/09 08:00:36;;;;;;;5.97;1.27;;;11.40;99.90;;;;;;4960839;28;20116;-72
2022/11/09 08:03:05;;;;;;;4.05;1.25;;;11.40;99.90;;;;;;4982602;28;20054;-72
2022/11/09 08:05:33;;;;;;;10.18;1.48;;;11.50;99.90;;;;;;4970643;28;20136;-72
2022/11/09 08:08:03;;;;;;;6.07;1.30;;;11.50;99.90;;;;;;4971962;28;20042;-72
2022/11/09 08:10:33;;;;;;;10.38;1.30;;;11.50;99.90;;;;;;4984884;28;20043;-73
2022/11/09 08:13:01;;;;;;;5.50;1.05;;;11.50;99.90;;;;;;4972733;28;20871;-72
2022/11/09 08:15:27;;;;;;;4.05;0.95;;;11.50;99.90;;;;;;4965558;28;20077;-71
2022/11/09 08:17:53;;;;;;;5.68;1.13;;;11.50;99.90;;;;;;4969114;28;20042;-73
2022/11/09 08:20:20;;;;;;;6.18;1.33;;;11.50;99.90;;;;;;4971904;28;20050;-72
2022/11/09 08:22:46;;;;;;;;;;;11.50;99.90;;;;;;4983209;28;20137;-72
2022/11/09 08:25:13;;;;;;;4.47;1.75;;;11.60;99.90;;;;;;4994905;28;20000;-72
2022/11/09 08:27:39;;;;;;;8.55;1.50;;;11.60;99.90;;;;;;4983470;28;20290;-72
2022/11/09 08:30:16;;;;;;;5.63;1.27;;;11.60;99.90;;;;;;4989416;28;20149;-71
2022/11/09 08:32:43;;;;;;;8.73;1.25;;;11.70;99.90;;;;;;4983000;28;20046;-72
2022/11/09 08:35:11;;;;;;;7.20;1.48;;;11.70;99.90;;;;;;4966930;28;20484;-72
2022/11/09 08:37:37;;;;;;;5.20;1.08;;;11.70;99.90;;;;;;4979213;28;20090;-72
2022/11/09 08:40:04;;;;;;;;;;;11.80;99.90;;;;;;4989428;28;20053;-72
2022/11/09 08:42:29;;;;;;;4.28;1.13;;;11.80;99.90;;;;;;4978477;28;19925;-72
2022/11/09 08:44:55;;;;;;;5.90;1.07;;;11.90;99.90;;;;;;4965413;28;20041;-73
2022/11/09 08:47:21;;;;;;;4.73;1.90;;;11.90;99.90;;;;;;4991039;28;20283;-72
2022/11/09 08:49:47;;;;;;;3.67;1.08;;;12.00;99.90;;;;;;4989937;28;20041;-72
2022/11/09 08:52:15;;;;;;;6.50;1.00;;;12.00;99.90;;;;;;4962961;28;20400;-73
2022/11/09 08:54:40;;;;;;;8.65;2.08;;;12.10;99.90;;;;;;4975611;28;20034;-72
2022/11/09 08:57:06;;;;;;;5.30;1.47;;;12.10;99.90;;;;;;4986282;28;20120;-72
2022/11/09 08:59:34;;;;;;;11.60;1.47;;;12.20;99.90;;;;;;4972209;28;20123;-72
2022/11/09 09:02:00;;;;;;;4.70;1.10;;;12.20;99.90;;;;;;4969768;28;20053;-72
2022/11/09 09:04:25;;;;;;;6.07;1.20;;;12.20;99.90;;;;;;4980331;28;20046;-73
2022/11/09 09:06:51;;;;;;;4.45;0.90;;;12.30;99.90;;;;;;4965805;28;20041;-70
2022/11/09 09:09:17;;;;;;;4.68;1.65;;;12.30;99.90;;;;;;4985868;28;20093;-71
2022/11/09 09:11:43;;;;;;;8.52;1.67;;;12.40;99.90;;;;;;4963140;28;20054;-69
2022/11/09 09:14:08;;;;;;;4.97;1.25;;;12.50;99.90;;;;;;4985595;28;20511;-78
2022/11/09 09:16:34;;;;;;;11.90;3.77;;;12.50;99.90;;;;;;4963599;28;20042;-72
2022/11/09 09:19:00;;;;;;;3.80;1.53;;;12.60;99.90;;;;;;5071300;23;20299;-69
2022/11/09 09:21:26;;;;;;;7.03;1.20;;;12.70;99.90;;;;;;5004333;28;20290;-69
2022/11/09 09:23:51;;;;;;;4.40;1.30;;;12.70;99.90;;;;;;4997291;28;20283;-69
2022/11/09 09:26:17;;;;;;;7.40;1.20;;;12.70;99.90;;;;;;5007732;28;20125;-71
2022/11/09 09:28:43;;;;;;;10.77;1.70;;;12.80;99.90;;;;;;4990414;28;21432;-72
2022/11/09 09:31:09;;;;;;;6.13;1.40;;;12.80;99.90;;;;;;4990689;28;20050;-71
2022/11/09 09:33:35;;;;;;;8.05;1.63;;;12.80;99.90;;;;;;5002247;28;20046;-70
2022/11/09 09:36:01;;;;;;;;;;;12.90;99.90;;;;;;5006528;28;20038;-69
2022/11/09 09:38:28;;;;;;;3.58;0.95;;;12.90;99.90;;;;;;5006795;28;19924;-69
2022/11/09 09:40:59;;;;;;;8.07;1.50;;;12.90;99.90;;;;;;5005305;28;20045;-70
2022/11/09 09:43:39;;;;;;;9.65;1.60;;;13.00;99.90;;;;;;4990893;28;20196;-70
2022/11/09 09:46:16;;;;;;;7.72;1.20;;;13.00;99.90;;;;;;5000961;28;20098;-69
2022/11/09 09:48:47;;;;;;;4.15;1.08;;;13.10;99.90;;;;;;5006399;28;20113;-70
2022/11/09 09:51:26;;;;;;;7.38;1.45;;;13.10;99.90;;;;;;4998624;28;20060;-69
2022/11/09 09:54:10;;;;;;;3.97;1.60;;;13.20;99.90;;;;;;4999521;28;20127;-69
2022/11/09 09:56:42;;;;;;;8.38;1.65;;;13.20;99.90;;;;;;4990074;28;20116;-69
2022/11/09 09:59:08;;;;;;;7.75;2.28;;;13.30;99.90;;;;;;4986854;28;20145;-69
2022/11/09 10:01:39;;;;;;;6.30;1.40;;;13.40;99.90;;;;;;4986610;28;20376;-70
2022/11/09 10:04:36;;;;;;;5.72;1.25;;;13.40;99.90;;;;;;4985458;28;20042;-70
2022/11/09 10:07:06;;;;;;;7.53;1.75;;;13.50;99.90;;;;;;4979809;28;20404;-69
2022/11/09 10:09:32;;;;;;;7.63;1.58;;;13.50;99.90;;;;;;4987184;28;20046;-70
2022/11/09 10:12:12;;;;;;;8.70;1.97;;;13.60;99.90;;;;;;5007880;28;20132;-69
2022/11/09 10:14:41;;;;;;;7.13;1.80;;;13.60;99.90;;;;;;5003741;28;20492;-71
2022/11/09 10:17:57;;;;;;;4.10;1.50;;;13.60;99.90;;;;;;5005193;28;20069;-69
2022/11/09 10:20:45;;;;;;;5.43;1.58;;;13.60;99.90;;;;;;4971751;28;20065;-69
2022/11/09 10:23:25;;;;;;;5.30;1.70;;;13.60;99.90;;;;;;4997039;28;20037;-70
2022/11/09 10:26:13;;;;;;;6.28;2.08;;;13.50;99.90;;;;;;5000747;28;20212;-70
2022/11/09 10:28:41;;;;;;;12.98;2.58;;;13.50;99.90;;;;;;5003489;28;20077;-69
2022/11/09 10:31:17;;;;;;;12.13;1.83;;;13.40;99.90;;;;;;4983685;28;20088;-70
2022/11/09 10:33:54;;;;;;;4.60;1.63;;;13.40;99.90;;;;;;4969708;28;20042;-70
2022/11/09 10:36:29;;;;;;;;;;;13.40;99.90;;;;;;5004453;28;20041;-69
2022/11/09 10:38:59;;;;;;;7.78;2.20;;;13.40;99.90;;;;;;4972787;28;19921;-71
2022/11/09 10:41:30;;;;;;;4.63;1.48;;;13.40;99.90;;;;;;5003600;28;20458;-69
2022/11/09 10:43:56;;;;;;;8.50;1.88;;;13.40;99.90;;;;;;4989734;28;20042;-69
2022/11/09 10:46:23;;;;;;;5.05;1.60;;;13.40;99.90;;;;;;4990339;28;20399;-70
2022/11/09 10:48:50;;;;;;;4.28;1.60;;;13.50;99.90;;;;;;4974287;28;20120;-69
2022/11/09 10:51:36;;;;;;;5.90;2.00;;;13.50;99.90;;;;;;5004331;28;20077;-69
2022/11/09 10:54:27;;;;;;;7.35;2.30;;;13.40;99.90;;;;;;4977982;28;20207;-70
2022/11/09 10:57:10;;;;;;;8.23;2.00;;;13.40;99.90;;;;;;5001696;28;20541;-69
2022/11/09 10:59:42;;;;;;;10.75;2.72;;;13.40;99.90;;;;;;5012365;28;20069;-69
2022/11/09 11:02:23;;;;;;;5.57;2.05;;;13.40;99.90;;;;;;4992746;28;20060;-69
2022/11/09 11:05:11;;;;;;;5.90;1.75;;;13.40;99.90;;;;;;4988761;28;20403;-70
2022/11/09 11:07:37;;;;;;;7.45;2.38;;;13.40;99.90;;;;;;4982398;28;20093;-69
2022/11/09 11:10:15;;;;;;;4.60;1.50;;;13.30;99.90;;;;;;5009740;28;20515;-69
2022/11/09 11:12:42;;;;;;;7.68;1.88;;;13.30;99.90;;;;;;4985692;28;20041;-70
2022/11/09 11:15:29;;;;;;;5.13;1.98;;;13.30;99.90;;;;;;4989130;28;20395;-70
2022/11/09 11:18:04;;;;;;;7.95;1.88;;;13.30;99.90;;;;;;4986820;28;20066;-70
2022/11/09 11:20:35;;;;;;;9.15;1.77;;;13.30;99.90;;;;;;5007758;28;20046;-69
2022/11/09 11:23:10;;;;;;;5.80;2.05;;;13.30;99.90;;;;;;4999856;28;20065;-79
2022/11/09 11:25:54;;;;;;;7.60;2.22;;;13.30;99.90;;;;;;4986668;28;20038;-69
2022/11/09 11:28:28;;;;;;;5.90;1.80;;;13.30;99.90;;;;;;5005651;28;20926;-68
2022/11/09 11:30:54;;;;;;;5.57;1.85;;;13.30;99.90;;;;;;5001617;28;20466;-69
2022/11/09 11:33:20;;;;;;;4.20;1.85;;;13.30;99.90;;;;;;4992667;28;20133;-69
2022/11/09 11:35:57;;;;;;;7.57;2.00;;;13.40;99.90;;;;;;5009737;28;20049;-69
2022/11/09 11:38:23;;;;;;;;;;;13.40;99.90;;;;;;4989244;28;20038;-69
2022/11/09 11:41:01;;;;;;;5.20;1.77;;;13.40;99.90;;;;;;4984840;28;20299;-69
2022/11/09 11:43:47;;;;;;;8.02;2.45;;;13.40;99.90;;;;;;5009332;28;20042;-69
2022/11/09 11:46:23;;;;;;;6.72;1.95;;;13.30;99.90;;;;;;4966666;28;20075;-69
2022/11/09 11:49:10;;;;;;;5.05;1.80;;;13.30;99.90;;;;;;4993200;28;20100;-68
2022/11/09 11:51:47;;;;;;;;;;;13.40;99.90;;;;;;5001700;28;20508;-69
2022/11/09 11:54:22;;;;;;;4.47;1.60;;;13.30;99.90;;;;;;4989108;28;19941;-68
2022/11/09 11:57:17;;;;;;;6.10;2.17;;;13.30;99.90;;;;;;4984925;28;20641;-69
2022/11/09 11:59:53;;;;;;;5.55;2.13;;;13.30;99.90;;;;;;4996848;28;20046;-69
2022/11/09 12:02:25;;;;;;;;;;;13.30;99.90;;;;;;4991654;28;20052;-69
2022/11/09 12:05:24;;;;;;;4.78;1.98;;;13.30;99.90;;;;;;4990858;28;19918;-69
2022/11/09 12:07:50;;;;;;;7.63;2.00;;;13.20;99.90;;;;;;4989139;28;20121;-69
2022/11/09 12:10:29;;;;;;;4.37;1.67;;;13.30;99.90;;;;;;5007352;28;20068;-69
2022/11/09 12:13:18;;;;;;;7.07;2.58;;;13.20;99.90;;;;;;5006776;28;20633;-68
2022/11/09 12:16:03;;;;;;;8.00;2.67;;;13.20;99.90;;;;;;4980406;28;20049;-68
2022/11/09 12:18:41;;;;;;;9.75;2.10;;;13.30;99.90;;;;;;5009265;28;20364;-68
2022/11/09 12:21:17;;;;;;;8.93;1.90;;;13.20;99.90;;;;;;5008773;28;20053;-68
2022/11/09 12:23:48;;;;;;;10.38;2.65;;;13.30;99.90;;;;;;4990246;28;20054;-68
2022/11/09 12:26:41;;;;;;;8.23;2.60;;;13.30;99.90;;;;;;4990674;28;20034;-68
2022/11/09 12:29:19;;;;;;;8.55;1.90;;;13.40;99.90;;;;;;5005551;28;20041;-68
2022/11/09 12:32:16;;;;;;;4.85;1.58;;;13.40;99.90;;;;;;4983641;28;20129;-70
2022/11/09 12:34:44;;;;;;;5.50;1.75;;;13.50;99.90;;;;;;5006466;28;20046;-69
2022/11/09 12:37:18;;;;;;;4.90;1.45;;;13.50;99.90;;;;;;4991339;28;20154;-69
2022/11/09 12:39:46;;;;;;;9.18;1.63;;;13.50;99.90;;;;;;4990411;28;20049;-69
2022/11/09 12:42:32;;;;;;;5.40;1.60;;;13.50;99.90;;;;;;5008493;28;20045;-69
2022/11/09 12:45:03;;;;;;;10.32;1.52;;;13.40;99.90;;;;;;4982210;28;20048;-69
2022/11/09 12:47:35;;;;;;;4.70;1.02;;;13.40;99.90;;;;;;5008088;28;20046;-69
2022/11/09 12:50:02;;;;;;;4.05;1.27;;;13.30;99.90;;;;;;5009240;28;20038;-69
2022/11/09 12:52:28;;;;;;;;;;;13.30;99.90;;;;;;4987922;28;20116;-70
2022/11/09 12:54:56;;;;;;;10.05;1.50;;;13.20;99.90;;;;;;5004269;28;19924;-70
2022/11/09 12:57:27;;;;;;;6.32;1.55;;;13.20;99.90;;;;;;5012354;28;20065;-70
2022/11/09 12:59:55;;;;;;;5.75;1.80;;;13.10;99.90;;;;;;4988695;28;20045;-69
2022/11/09 13:02:34;;;;;;;7.70;1.15;;;13.10;99.90;;;;;;4989641;28;20403;-68
2022/11/09 13:05:07;;;;;;;5.53;0.98;;;13.00;99.90;;;;;;5004016;28;20127;-68
2022/11/09 13:07:48;;;;;;;3.00;1.00;;;12.90;99.90;;;;;;4990639;28;20037;-69